sensor_id;sensor_type;location;lat;lon;timestamp;P1;durP1;ratioP1;P2;durP2;ratioP2
34541;SDS011;20784;51.332;12.410;2023-12-07T00:01:28;20.75;;;13.32;;
34541;SDS011;20784;51.332;12.410;2023-12-07T00:03:54;20.88;;;13.48;;
34541;SDS011;20784;51.332;12.410;2023-12-07T00:06:22;18.88;;;12.25;;
34541;SDS011;20784;51.332;12.410;2023-12-07T00:08:47;21.13;;;12.73;;
34541;SDS011;20784;51.332;12.410;2023-12-07T00:11:13;19.40;;;13.10;;
34541;SDS011;20784;51.332;12.410;2023-12-07T00:13:38;20.88;;;13.15;;
34541;SDS011;20784;51.332;12.410;2023-12-07T00:16:04;19.98;;;13.18;;
34541;SDS011;20784;51.332;12.410;2023-12-07T00:18:30;18.77;;;13.02;;
34541;SDS011;20784;51.332;12.410;2023-12-07T00:20:55;21.05;;;13.48;;
34541;SDS011;20784;51.332;12.410;2023-12-07T00:23:21;19.48;;;12.75;;
34541;SDS011;20784;51.332;12.410;2023-12-07T00:25:50;18.50;;;12.55;;
34541;SDS011;20784;51.332;12.410;2023-12-07T00:28:16;18.25;;;12.90;;
34541;SDS011;20784;51.332;12.410;2023-12-07T00:30:41;20.05;;;13.23;;
34541;SDS011;20784;51.332;12.410;2023-12-07T00:33:07;20.45;;;13.85;;
34541;SDS011;20784;51.332;12.410;2023-12-07T00:35:39;19.35;;;12.75;;
34541;SDS011;20784;51.332;12.410;2023-12-07T00:38:04;19.27;;;13.77;;
34541;SDS011;20784;51.332;12.410;2023-12-07T00:40:33;20.15;;;13.93;;
34541;SDS011;20784;51.332;12.410;2023-12-07T00:43:04;21.42;;;13.38;;
34541;SDS011;20784;51.332;12.410;2023-12-07T00:45:39;20.88;;;12.15;;
34541;SDS011;20784;51.332;12.410;2023-12-07T00:48:04;17.63;;;12.50;;
34541;SDS011;20784;51.332;12.410;2023-12-07T00:50:30;21.92;;;14.43;;
34541;SDS011;20784;51.332;12.410;2023-12-07T00:52:56;20.92;;;12.88;;
34541;SDS011;20784;51.332;12.410;2023-12-07T00:55:39;19.73;;;13.38;;
34541;SDS011;20784;51.332;12.410;2023-12-07T00:58:19;19.00;;;12.68;;
34541;SDS011;20784;51.332;12.410;2023-12-07T01:00:45;20.42;;;13.27;;
34541;SDS011;20784;51.332;12.410;2023-12-07T01:03:19;19.40;;;13.10;;
34541;SDS011;20784;51.332;12.410;2023-12-07T01:08:47;20.60;;;13.10;;
34541;SDS011;20784;51.332;12.410;2023-12-07T01:12:03;21.33;;;13.38;;
34541;SDS011;20784;51.332;12.410;2023-12-07T01:14:29;23.17;;;13.93;;
34541;SDS011;20784;51.332;12.410;2023-12-07T01:17:30;21.25;;;12.48;;
34541;SDS011;20784;51.332;12.410;2023-12-07T01:20:12;19.77;;;13.02;;
34541;SDS011;20784;51.332;12.410;2023-12-07T01:22:41;20.55;;;13.23;;
34541;SDS011;20784;51.332;12.410;2023-12-07T01:28:02;23.33;;;13.35;;
34541;SDS011;20784;51.332;12.410;2023-12-07T01:30:58;26.10;;;14.55;;
34541;SDS011;20784;51.332;12.410;2023-12-07T01:33:26;21.40;;;13.65;;
34541;SDS011;20784;51.332;12.410;2023-12-07T01:35:57;22.13;;;14.05;;
34541;SDS011;20784;51.332;12.410;2023-12-07T01:38:52;23.00;;;13.07;;
34541;SDS011;20784;51.332;12.410;2023-12-07T01:41:41;25.38;;;13.00;;
34541;SDS011;20784;51.332;12.410;2023-12-07T01:44:14;21.75;;;13.65;;
34541;SDS011;20784;51.332;12.410;2023-12-07T01:47:08;20.65;;;13.55;;
34541;SDS011;20784;51.332;12.410;2023-12-07T01:49:44;23.33;;;13.93;;
34541;SDS011;20784;51.332;12.410;2023-12-07T01:52:54;20.45;;;13.63;;
34541;SDS011;20784;51.332;12.410;2023-12-07T01:55:50;22.05;;;14.05;;
34541;SDS011;20784;51.332;12.410;2023-12-07T01:58:19;20.67;;;13.30;;
34541;SDS011;20784;51.332;12.410;2023-12-07T02:00:49;20.67;;;13.63;;
34541;SDS011;20784;51.332;12.410;2023-12-07T02:03:15;22.10;;;13.60;;
34541;SDS011;20784;51.332;12.410;2023-12-07T02:05:44;23.77;;;14.77;;
34541;SDS011;20784;51.332;12.410;2023-12-07T02:08:14;21.38;;;13.25;;
34541;SDS011;20784;51.332;12.410;2023-12-07T02:10:52;22.02;;;13.25;;
34541;SDS011;20784;51.332;12.410;2023-12-07T02:13:21;21.27;;;13.00;;
34541;SDS011;20784;51.332;12.410;2023-12-07T02:15:53;21.00;;;14.20;;
34541;SDS011;20784;51.332;12.410;2023-12-07T02:18:48;21.52;;;13.93;;
34541;SDS011;20784;51.332;12.410;2023-12-07T02:21:46;24.75;;;14.15;;
34541;SDS011;20784;51.332;12.410;2023-12-07T02:24:50;21.55;;;13.75;;
34541;SDS011;20784;51.332;12.410;2023-12-07T02:27:43;23.88;;;15.20;;
34541;SDS011;20784;51.332;12.410;2023-12-07T02:30:29;21.25;;;13.80;;
34541;SDS011;20784;51.332;12.410;2023-12-07T02:33:05;22.98;;;14.57;;
34541;SDS011;20784;51.332;12.410;2023-12-07T02:35:37;23.45;;;14.25;;
34541;SDS011;20784;51.332;12.410;2023-12-07T02:38:03;21.67;;;13.88;;
34541;SDS011;20784;51.332;12.410;2023-12-07T02:40:34;23.33;;;13.90;;
34541;SDS011;20784;51.332;12.410;2023-12-07T02:43:20;20.80;;;13.52;;
34541;SDS011;20784;51.332;12.410;2023-12-07T02:45:52;23.83;;;15.18;;
34541;SDS011;20784;51.332;12.410;2023-12-07T02:48:35;20.77;;;13.60;;
34541;SDS011;20784;51.332;12.410;2023-12-07T02:51:30;25.33;;;14.25;;
34541;SDS011;20784;51.332;12.410;2023-12-07T02:54:06;25.20;;;15.15;;
34541;SDS011;20784;51.332;12.410;2023-12-07T02:56:35;24.10;;;14.68;;
34541;SDS011;20784;51.332;12.410;2023-12-07T02:59:00;26.45;;;15.18;;
34541;SDS011;20784;51.332;12.410;2023-12-07T03:01:41;23.52;;;14.63;;
34541;SDS011;20784;51.332;12.410;2023-12-07T03:04:32;25.23;;;14.55;;
34541;SDS011;20784;51.332;12.410;2023-12-07T03:06:58;24.75;;;15.30;;
34541;SDS011;20784;51.332;12.410;2023-12-07T03:09:26;23.83;;;13.95;;
34541;SDS011;20784;51.332;12.410;2023-12-07T03:11:52;24.38;;;14.38;;
34541;SDS011;20784;51.332;12.410;2023-12-07T03:14:18;23.10;;;14.95;;
34541;SDS011;20784;51.332;12.410;2023-12-07T03:16:57;22.33;;;14.63;;
34541;SDS011;20784;51.332;12.410;2023-12-07T03:19:23;25.05;;;14.73;;
34541;SDS011;20784;51.332;12.410;2023-12-07T03:21:52;25.33;;;14.90;;
34541;SDS011;20784;51.332;12.410;2023-12-07T03:24:17;28.27;;;15.20;;
34541;SDS011;20784;51.332;12.410;2023-12-07T03:26:55;25.70;;;16.42;;
34541;SDS011;20784;51.332;12.410;2023-12-07T03:29:41;24.00;;;15.05;;
34541;SDS011;20784;51.332;12.410;2023-12-07T03:32:38;24.65;;;14.85;;
34541;SDS011;20784;51.332;12.410;2023-12-07T03:35:03;25.00;;;15.02;;
34541;SDS011;20784;51.332;12.410;2023-12-07T03:37:49;24.60;;;15.75;;
34541;SDS011;20784;51.332;12.410;2023-12-07T03:40:28;24.95;;;14.80;;
34541;SDS011;20784;51.332;12.410;2023-12-07T03:42:59;24.52;;;15.10;;
34541;SDS011;20784;51.332;12.410;2023-12-07T03:48:19;22.23;;;14.68;;
34541;SDS011;20784;51.332;12.410;2023-12-07T03:53:42;31.05;;;16.40;;
34541;SDS011;20784;51.332;12.410;2023-12-07T03:56:08;25.35;;;15.23;;
34541;SDS011;20784;51.332;12.410;2023-12-07T03:58:36;27.92;;;15.75;;
34541;SDS011;20784;51.332;12.410;2023-12-07T04:01:02;23.88;;;15.75;;
34541;SDS011;20784;51.332;12.410;2023-12-07T04:03:30;25.13;;;15.65;;
34541;SDS011;20784;51.332;12.410;2023-12-07T04:06:02;27.13;;;15.68;;
34541;SDS011;20784;51.332;12.410;2023-12-07T04:08:35;26.85;;;15.60;;
34541;SDS011;20784;51.332;12.410;2023-12-07T04:11:37;24.95;;;15.98;;
34541;SDS011;20784;51.332;12.410;2023-12-07T04:14:19;25.20;;;14.32;;
34541;SDS011;20784;51.332;12.410;2023-12-07T04:19:16;27.33;;;15.60;;
34541;SDS011;20784;51.332;12.410;2023-12-07T04:21:55;27.33;;;15.57;;
34541;SDS011;20784;51.332;12.410;2023-12-07T04:24:23;24.88;;;15.10;;
34541;SDS011;20784;51.332;12.410;2023-12-07T04:26:49;26.65;;;16.27;;
34541;SDS011;20784;51.332;12.410;2023-12-07T04:29:14;26.10;;;14.65;;
34541;SDS011;20784;51.332;12.410;2023-12-07T04:31:42;27.15;;;15.80;;
34541;SDS011;20784;51.332;12.410;2023-12-07T04:34:09;24.50;;;15.27;;
34541;SDS011;20784;51.332;12.410;2023-12-07T04:36:45;24.70;;;15.50;;
34541;SDS011;20784;51.332;12.410;2023-12-07T04:39:21;25.75;;;15.27;;
34541;SDS011;20784;51.332;12.410;2023-12-07T04:44:46;27.73;;;15.55;;
34541;SDS011;20784;51.332;12.410;2023-12-07T04:47:18;27.83;;;15.85;;
34541;SDS011;20784;51.332;12.410;2023-12-07T04:53:07;24.08;;;14.95;;
34541;SDS011;20784;51.332;12.410;2023-12-07T04:59:02;27.73;;;15.45;;
34541;SDS011;20784;51.332;12.410;2023-12-07T05:01:30;24.73;;;16.05;;
34541;SDS011;20784;51.332;12.410;2023-12-07T05:03:59;23.00;;;14.27;;
34541;SDS011;20784;51.332;12.410;2023-12-07T05:06:29;25.77;;;16.23;;
34541;SDS011;20784;51.332;12.410;2023-12-07T05:09:15;24.15;;;14.68;;
34541;SDS011;20784;51.332;12.410;2023-12-07T05:14:46;24.77;;;15.15;;
34541;SDS011;20784;51.332;12.410;2023-12-07T05:17:12;23.15;;;15.05;;
34541;SDS011;20784;51.332;12.410;2023-12-07T05:19:43;27.23;;;15.13;;
34541;SDS011;20784;51.332;12.410;2023-12-07T05:22:30;25.67;;;15.70;;
34541;SDS011;20784;51.332;12.410;2023-12-07T05:28:06;24.23;;;15.18;;
34541;SDS011;20784;51.332;12.410;2023-12-07T05:30:35;24.38;;;14.55;;
34541;SDS011;20784;51.332;12.410;2023-12-07T05:33:01;25.52;;;15.23;;
34541;SDS011;20784;51.332;12.410;2023-12-07T05:35:30;23.77;;;14.43;;
34541;SDS011;20784;51.332;12.410;2023-12-07T05:41:07;25.70;;;16.30;;
34541;SDS011;20784;51.332;12.410;2023-12-07T05:43:44;25.60;;;15.30;;
34541;SDS011;20784;51.332;12.410;2023-12-07T05:46:23;28.88;;;15.95;;
34541;SDS011;20784;51.332;12.410;2023-12-07T05:48:57;25.25;;;15.75;;
34541;SDS011;20784;51.332;12.410;2023-12-07T05:51:32;27.13;;;15.77;;
34541;SDS011;20784;51.332;12.410;2023-12-07T05:54:15;27.02;;;15.48;;
34541;SDS011;20784;51.332;12.410;2023-12-07T05:56:55;28.17;;;17.08;;
34541;SDS011;20784;51.332;12.410;2023-12-07T05:59:41;27.38;;;16.60;;
34541;SDS011;20784;51.332;12.410;2023-12-07T06:02:10;36.92;;;21.52;;
34541;SDS011;20784;51.332;12.410;2023-12-07T06:04:38;30.60;;;18.38;;
34541;SDS011;20784;51.332;12.410;2023-12-07T06:07:13;35.97;;;18.48;;
34541;SDS011;20784;51.332;12.410;2023-12-07T06:09:45;29.90;;;19.05;;
34541;SDS011;20784;51.332;12.410;2023-12-07T06:12:11;34.55;;;20.48;;
34541;SDS011;20784;51.332;12.410;2023-12-07T06:14:39;26.58;;;16.58;;
34541;SDS011;20784;51.332;12.410;2023-12-07T06:17:05;30.55;;;17.83;;
34541;SDS011;20784;51.332;12.410;2023-12-07T06:19:36;36.97;;;21.58;;
34541;SDS011;20784;51.332;12.410;2023-12-07T06:22:02;34.40;;;19.98;;
34541;SDS011;20784;51.332;12.410;2023-12-07T06:24:33;28.98;;;17.60;;
34541;SDS011;20784;51.332;12.410;2023-12-07T06:27:03;30.60;;;18.65;;
34541;SDS011;20784;51.332;12.410;2023-12-07T06:29:37;31.15;;;18.13;;
34541;SDS011;20784;51.332;12.410;2023-12-07T06:32:12;31.63;;;18.08;;
34541;SDS011;20784;51.332;12.410;2023-12-07T06:34:40;30.35;;;18.02;;
34541;SDS011;20784;51.332;12.410;2023-12-07T06:37:18;33.08;;;17.95;;
34541;SDS011;20784;51.332;12.410;2023-12-07T06:39:45;29.60;;;17.45;;
34541;SDS011;20784;51.332;12.410;2023-12-07T06:42:11;34.45;;;19.83;;
34541;SDS011;20784;51.332;12.410;2023-12-07T06:44:43;32.95;;;18.27;;
34541;SDS011;20784;51.332;12.410;2023-12-07T06:47:11;33.20;;;18.95;;
34541;SDS011;20784;51.332;12.410;2023-12-07T06:49:36;28.55;;;17.42;;
34541;SDS011;20784;51.332;12.410;2023-12-07T06:52:02;29.73;;;18.35;;
34541;SDS011;20784;51.332;12.410;2023-12-07T06:54:28;31.83;;;18.75;;
34541;SDS011;20784;51.332;12.410;2023-12-07T06:56:53;30.00;;;18.17;;
34541;SDS011;20784;51.332;12.410;2023-12-07T06:59:19;31.50;;;17.90;;
34541;SDS011;20784;51.332;12.410;2023-12-07T07:01:45;33.42;;;18.83;;
34541;SDS011;20784;51.332;12.410;2023-12-07T07:04:11;30.48;;;17.65;;
34541;SDS011;20784;51.332;12.410;2023-12-07T07:06:37;32.20;;;19.20;;
34541;SDS011;20784;51.332;12.410;2023-12-07T07:09:05;28.65;;;16.90;;
34541;SDS011;20784;51.332;12.410;2023-12-07T07:11:30;30.95;;;18.05;;
34541;SDS011;20784;51.332;12.410;2023-12-07T07:13:56;29.92;;;17.58;;
34541;SDS011;20784;51.332;12.410;2023-12-07T07:16:22;29.15;;;17.13;;
34541;SDS011;20784;51.332;12.410;2023-12-07T07:18:47;29.35;;;17.33;;
34541;SDS011;20784;51.332;12.410;2023-12-07T07:21:13;28.50;;;17.15;;
34541;SDS011;20784;51.332;12.410;2023-12-07T07:23:39;29.42;;;18.02;;
34541;SDS011;20784;51.332;12.410;2023-12-07T07:26:04;28.92;;;17.20;;
34541;SDS011;20784;51.332;12.410;2023-12-07T07:28:33;28.88;;;16.80;;
34541;SDS011;20784;51.332;12.410;2023-12-07T07:30:59;30.17;;;17.55;;
34541;SDS011;20784;51.332;12.410;2023-12-07T07:33:25;27.25;;;16.40;;
34541;SDS011;20784;51.332;12.410;2023-12-07T07:35:51;26.70;;;17.00;;
34541;SDS011;20784;51.332;12.410;2023-12-07T07:38:16;29.30;;;17.83;;
34541;SDS011;20784;51.332;12.410;2023-12-07T07:40:44;28.35;;;17.25;;
34541;SDS011;20784;51.332;12.410;2023-12-07T07:43:12;28.50;;;17.83;;
34541;SDS011;20784;51.332;12.410;2023-12-07T07:45:38;39.17;;;22.27;;
34541;SDS011;20784;51.332;12.410;2023-12-07T07:48:03;28.73;;;17.45;;
34541;SDS011;20784;51.332;12.410;2023-12-07T07:50:32;33.97;;;19.83;;
34541;SDS011;20784;51.332;12.410;2023-12-07T07:52:59;27.98;;;16.90;;
34541;SDS011;20784;51.332;12.410;2023-12-07T07:55:24;25.63;;;16.02;;
34541;SDS011;20784;51.332;12.410;2023-12-07T07:57:50;27.63;;;17.17;;
34541;SDS011;20784;51.332;12.410;2023-12-07T08:00:15;27.45;;;16.42;;
34541;SDS011;20784;51.332;12.410;2023-12-07T08:02:42;28.45;;;16.08;;
34541;SDS011;20784;51.332;12.410;2023-12-07T08:05:08;23.95;;;15.38;;
34541;SDS011;20784;51.332;12.410;2023-12-07T08:07:34;25.90;;;16.05;;
34541;SDS011;20784;51.332;12.410;2023-12-07T08:09:59;24.08;;;14.82;;
34541;SDS011;20784;51.332;12.410;2023-12-07T08:12:25;30.45;;;16.15;;
34541;SDS011;20784;51.332;12.410;2023-12-07T08:14:51;26.60;;;16.48;;
34541;SDS011;20784;51.332;12.410;2023-12-07T08:17:16;25.55;;;15.43;;
34541;SDS011;20784;51.332;12.410;2023-12-07T08:19:51;25.50;;;15.98;;
34541;SDS011;20784;51.332;12.410;2023-12-07T08:22:17;27.17;;;17.27;;
34541;SDS011;20784;51.332;12.410;2023-12-07T08:24:43;26.17;;;16.80;;
34541;SDS011;20784;51.332;12.410;2023-12-07T08:27:09;23.77;;;15.23;;
34541;SDS011;20784;51.332;12.410;2023-12-07T08:29:35;25.33;;;15.75;;
34541;SDS011;20784;51.332;12.410;2023-12-07T08:32:01;26.77;;;16.55;;
34541;SDS011;20784;51.332;12.410;2023-12-07T08:34:27;24.30;;;15.68;;
34541;SDS011;20784;51.332;12.410;2023-12-07T08:36:53;22.05;;;14.57;;
34541;SDS011;20784;51.332;12.410;2023-12-07T08:39:19;27.98;;;16.13;;
34541;SDS011;20784;51.332;12.410;2023-12-07T08:41:45;27.65;;;16.02;;
34541;SDS011;20784;51.332;12.410;2023-12-07T08:44:12;24.83;;;15.35;;
34541;SDS011;20784;51.332;12.410;2023-12-07T08:46:38;24.77;;;15.20;;
34541;SDS011;20784;51.332;12.410;2023-12-07T08:49:11;25.17;;;14.77;;
34541;SDS011;20784;51.332;12.410;2023-12-07T08:51:37;21.85;;;14.23;;
34541;SDS011;20784;51.332;12.410;2023-12-07T08:54:03;24.70;;;15.10;;
34541;SDS011;20784;51.332;12.410;2023-12-07T08:56:30;27.85;;;15.63;;
34541;SDS011;20784;51.332;12.410;2023-12-07T08:58:55;27.80;;;15.18;;
34541;SDS011;20784;51.332;12.410;2023-12-07T09:01:21;23.90;;;15.32;;
34541;SDS011;20784;51.332;12.410;2023-12-07T09:03:53;24.45;;;14.90;;
34541;SDS011;20784;51.332;12.410;2023-12-07T09:06:18;28.63;;;15.45;;
34541;SDS011;20784;51.332;12.410;2023-12-07T09:08:44;25.60;;;15.70;;
34541;SDS011;20784;51.332;12.410;2023-12-07T09:11:10;24.92;;;15.18;;
34541;SDS011;20784;51.332;12.410;2023-12-07T09:13:37;23.88;;;15.02;;
34541;SDS011;20784;51.332;12.410;2023-12-07T09:16:04;24.83;;;15.38;;
34541;SDS011;20784;51.332;12.410;2023-12-07T09:18:30;24.50;;;14.68;;
34541;SDS011;20784;51.332;12.410;2023-12-07T09:20:55;24.00;;;14.88;;
34541;SDS011;20784;51.332;12.410;2023-12-07T09:23:21;23.75;;;15.40;;
34541;SDS011;20784;51.332;12.410;2023-12-07T09:25:46;26.88;;;15.73;;
34541;SDS011;20784;51.332;12.410;2023-12-07T09:28:12;29.00;;;15.63;;
34541;SDS011;20784;51.332;12.410;2023-12-07T09:30:37;25.23;;;14.65;;
34541;SDS011;20784;51.332;12.410;2023-12-07T09:33:03;27.10;;;14.30;;
34541;SDS011;20784;51.332;12.410;2023-12-07T09:35:29;23.73;;;14.25;;
34541;SDS011;20784;51.332;12.410;2023-12-07T09:37:55;26.35;;;15.65;;
34541;SDS011;20784;51.332;12.410;2023-12-07T09:40:21;24.45;;;15.10;;
34541;SDS011;20784;51.332;12.410;2023-12-07T09:42:48;24.42;;;15.10;;
34541;SDS011;20784;51.332;12.410;2023-12-07T09:45:14;27.88;;;15.90;;
34541;SDS011;20784;51.332;12.410;2023-12-07T09:47:43;26.77;;;14.98;;
34541;SDS011;20784;51.332;12.410;2023-12-07T09:50:11;22.33;;;15.18;;
34541;SDS011;20784;51.332;12.410;2023-12-07T09:52:38;23.38;;;14.95;;
34541;SDS011;20784;51.332;12.410;2023-12-07T09:55:05;24.73;;;14.98;;
34541;SDS011;20784;51.332;12.410;2023-12-07T09:57:32;26.58;;;15.80;;
34541;SDS011;20784;51.332;12.410;2023-12-07T09:59:58;22.90;;;14.55;;
34541;SDS011;20784;51.332;12.410;2023-12-07T10:02:25;25.25;;;15.48;;
34541;SDS011;20784;51.332;12.410;2023-12-07T10:05:03;25.38;;;14.73;;
34541;SDS011;20784;51.332;12.410;2023-12-07T10:07:33;28.45;;;15.60;;
34541;SDS011;20784;51.332;12.410;2023-12-07T10:10:00;25.98;;;14.50;;
34541;SDS011;20784;51.332;12.410;2023-12-07T10:12:26;28.67;;;15.48;;
34541;SDS011;20784;51.332;12.410;2023-12-07T10:14:52;23.90;;;14.65;;
34541;SDS011;20784;51.332;12.410;2023-12-07T10:20:15;26.00;;;15.93;;
34541;SDS011;20784;51.332;12.410;2023-12-07T10:22:49;24.42;;;15.93;;
34541;SDS011;20784;51.332;12.410;2023-12-07T10:25:26;25.13;;;15.60;;
34541;SDS011;20784;51.332;12.410;2023-12-07T10:27:52;24.80;;;14.60;;
34541;SDS011;20784;51.332;12.410;2023-12-07T10:30:18;26.33;;;15.82;;
34541;SDS011;20784;51.332;12.410;2023-12-07T10:35:15;22.35;;;14.15;;
34541;SDS011;20784;51.332;12.410;2023-12-07T10:37:43;26.35;;;15.77;;
34541;SDS011;20784;51.332;12.410;2023-12-07T10:40:08;28.05;;;15.95;;
34541;SDS011;20784;51.332;12.410;2023-12-07T10:42:34;23.90;;;15.10;;
34541;SDS011;20784;51.332;12.410;2023-12-07T10:45:05;22.98;;;14.90;;
34541;SDS011;20784;51.332;12.410;2023-12-07T10:47:33;30.55;;;17.75;;
34541;SDS011;20784;51.332;12.410;2023-12-07T10:50:05;31.27;;;18.27;;
34541;SDS011;20784;51.332;12.410;2023-12-07T10:52:36;23.58;;;14.80;;
34541;SDS011;20784;51.332;12.410;2023-12-07T10:55:07;24.98;;;15.25;;
34541;SDS011;20784;51.332;12.410;2023-12-07T10:57:38;25.13;;;15.82;;
34541;SDS011;20784;51.332;12.410;2023-12-07T11:00:07;25.42;;;15.18;;
34541;SDS011;20784;51.332;12.410;2023-12-07T11:02:34;25.63;;;15.82;;
34541;SDS011;20784;51.332;12.410;2023-12-07T11:05:01;29.67;;;16.63;;
34541;SDS011;20784;51.332;12.410;2023-12-07T11:07:34;24.52;;;15.05;;
34541;SDS011;20784;51.332;12.410;2023-12-07T11:10:25;22.17;;;15.57;;
34541;SDS011;20784;51.332;12.410;2023-12-07T11:15:36;25.77;;;16.08;;
34541;SDS011;20784;51.332;12.410;2023-12-07T11:18:02;27.88;;;16.23;;
34541;SDS011;20784;51.332;12.410;2023-12-07T11:20:31;24.95;;;15.80;;
34541;SDS011;20784;51.332;12.410;2023-12-07T11:23:08;27.08;;;15.60;;
34541;SDS011;20784;51.332;12.410;2023-12-07T11:25:37;26.10;;;15.60;;
34541;SDS011;20784;51.332;12.410;2023-12-07T11:28:03;25.58;;;16.30;;
34541;SDS011;20784;51.332;12.410;2023-12-07T11:30:37;26.85;;;15.98;;
34541;SDS011;20784;51.332;12.410;2023-12-07T11:33:06;26.23;;;14.55;;
34541;SDS011;20784;51.332;12.410;2023-12-07T11:36:02;24.38;;;15.25;;
34541;SDS011;20784;51.332;12.410;2023-12-07T11:38:30;27.23;;;17.00;;
34541;SDS011;20784;51.332;12.410;2023-12-07T11:40:59;25.98;;;16.20;;
34541;SDS011;20784;51.332;12.410;2023-12-07T11:45:58;28.73;;;15.77;;
34541;SDS011;20784;51.332;12.410;2023-12-07T11:48:24;30.13;;;16.55;;
34541;SDS011;20784;51.332;12.410;2023-12-07T11:50:54;27.98;;;16.50;;
34541;SDS011;20784;51.332;12.410;2023-12-07T11:53:25;25.33;;;15.18;;
34541;SDS011;20784;51.332;12.410;2023-12-07T11:55:52;26.20;;;16.38;;
34541;SDS011;20784;51.332;12.410;2023-12-07T11:58:21;29.27;;;16.15;;
34541;SDS011;20784;51.332;12.410;2023-12-07T12:00:47;24.05;;;15.15;;
34541;SDS011;20784;51.332;12.410;2023-12-07T12:03:16;31.13;;;16.08;;
34541;SDS011;20784;51.332;12.410;2023-12-07T12:05:45;29.63;;;14.95;;
34541;SDS011;20784;51.332;12.410;2023-12-07T12:08:11;26.52;;;16.00;;
34541;SDS011;20784;51.332;12.410;2023-12-07T12:10:47;27.10;;;16.30;;
34541;SDS011;20784;51.332;12.410;2023-12-07T12:13:18;25.48;;;15.68;;
34541;SDS011;20784;51.332;12.410;2023-12-07T12:15:44;27.17;;;16.30;;
34541;SDS011;20784;51.332;12.410;2023-12-07T12:18:13;28.73;;;16.15;;
34541;SDS011;20784;51.332;12.410;2023-12-07T12:20:41;26.30;;;15.85;;
34541;SDS011;20784;51.332;12.410;2023-12-07T12:23:12;26.95;;;15.27;;
34541;SDS011;20784;51.332;12.410;2023-12-07T12:25:38;28.20;;;16.02;;
34541;SDS011;20784;51.332;12.410;2023-12-07T12:28:05;25.17;;;14.88;;
34541;SDS011;20784;51.332;12.410;2023-12-07T12:30:39;26.45;;;15.93;;
34541;SDS011;20784;51.332;12.410;2023-12-07T12:33:07;28.15;;;16.42;;
34541;SDS011;20784;51.332;12.410;2023-12-07T12:35:36;24.70;;;14.95;;
34541;SDS011;20784;51.332;12.410;2023-12-07T12:38:08;24.92;;;15.43;;
34541;SDS011;20784;51.332;12.410;2023-12-07T12:40:37;25.98;;;15.77;;
34541;SDS011;20784;51.332;12.410;2023-12-07T12:43:03;26.00;;;15.48;;
34541;SDS011;20784;51.332;12.410;2023-12-07T12:45:36;24.95;;;15.25;;
34541;SDS011;20784;51.332;12.410;2023-12-07T12:48:05;24.27;;;15.18;;
34541;SDS011;20784;51.332;12.410;2023-12-07T12:50:35;23.77;;;14.82;;
34541;SDS011;20784;51.332;12.410;2023-12-07T12:53:06;25.58;;;15.82;;
34541;SDS011;20784;51.332;12.410;2023-12-07T12:55:35;24.63;;;15.23;;
34541;SDS011;20784;51.332;12.410;2023-12-07T12:58:02;22.90;;;14.30;;
34541;SDS011;20784;51.332;12.410;2023-12-07T13:00:29;24.35;;;13.65;;
34541;SDS011;20784;51.332;12.410;2023-12-07T13:02:59;31.52;;;16.50;;
34541;SDS011;20784;51.332;12.410;2023-12-07T13:05:29;25.70;;;14.73;;
34541;SDS011;20784;51.332;12.410;2023-12-07T13:07:58;22.80;;;14.38;;
34541;SDS011;20784;51.332;12.410;2023-12-07T13:10:28;21.65;;;14.43;;
34541;SDS011;20784;51.332;12.410;2023-12-07T13:12:54;23.10;;;14.40;;
34541;SDS011;20784;51.332;12.410;2023-12-07T13:15:21;26.13;;;15.05;;
34541;SDS011;20784;51.332;12.410;2023-12-07T13:17:55;25.23;;;15.02;;
34541;SDS011;20784;51.332;12.410;2023-12-07T13:20:25;23.83;;;14.27;;
34541;SDS011;20784;51.332;12.410;2023-12-07T13:22:55;23.70;;;14.75;;
34541;SDS011;20784;51.332;12.410;2023-12-07T13:25:24;26.17;;;15.70;;
34541;SDS011;20784;51.332;12.410;2023-12-07T13:27:53;27.23;;;14.65;;
34541;SDS011;20784;51.332;12.410;2023-12-07T13:30:19;22.35;;;13.98;;
34541;SDS011;20784;51.332;12.410;2023-12-07T13:32:47;20.75;;;13.77;;
34541;SDS011;20784;51.332;12.410;2023-12-07T13:35:16;22.10;;;14.68;;
34541;SDS011;20784;51.332;12.410;2023-12-07T13:37:45;21.58;;;14.20;;
34541;SDS011;20784;51.332;12.410;2023-12-07T13:42:45;22.45;;;13.57;;
34541;SDS011;20784;51.332;12.410;2023-12-07T13:45:13;20.80;;;12.73;;
34541;SDS011;20784;51.332;12.410;2023-12-07T13:47:53;22.20;;;14.13;;
34541;SDS011;20784;51.332;12.410;2023-12-07T13:50:46;22.58;;;13.88;;
34541;SDS011;20784;51.332;12.410;2023-12-07T13:53:21;23.42;;;14.32;;
34541;SDS011;20784;51.332;12.410;2023-12-07T13:55:52;24.15;;;13.60;;
34541;SDS011;20784;51.332;12.410;2023-12-07T13:58:19;29.05;;;14.45;;
34541;SDS011;20784;51.332;12.410;2023-12-07T14:03:57;21.85;;;13.48;;
34541;SDS011;20784;51.332;12.410;2023-12-07T14:06:26;24.80;;;13.35;;
34541;SDS011;20784;51.332;12.410;2023-12-07T14:08:54;21.42;;;12.95;;
34541;SDS011;20784;51.332;12.410;2023-12-07T14:11:40;21.17;;;12.68;;
34541;SDS011;20784;51.332;12.410;2023-12-07T14:14:09;19.35;;;12.43;;
34541;SDS011;20784;51.332;12.410;2023-12-07T14:16:41;19.10;;;12.50;;
34541;SDS011;20784;51.332;12.410;2023-12-07T14:19:07;22.65;;;13.18;;
34541;SDS011;20784;51.332;12.410;2023-12-07T14:21:40;20.33;;;13.40;;
34541;SDS011;20784;51.332;12.410;2023-12-07T14:24:29;20.48;;;12.05;;
34541;SDS011;20784;51.332;12.410;2023-12-07T14:27:03;18.48;;;12.27;;
34541;SDS011;20784;51.332;12.410;2023-12-07T14:30:03;25.08;;;15.43;;
34541;SDS011;20784;51.332;12.410;2023-12-07T14:32:32;22.45;;;14.38;;
34541;SDS011;20784;51.332;12.410;2023-12-07T14:35:01;22.40;;;12.43;;
34541;SDS011;20784;51.332;12.410;2023-12-07T14:37:26;20.05;;;12.75;;
34541;SDS011;20784;51.332;12.410;2023-12-07T14:39:53;20.30;;;13.32;;
34541;SDS011;20784;51.332;12.410;2023-12-07T14:42:30;21.42;;;13.10;;
34541;SDS011;20784;51.332;12.410;2023-12-07T14:44:59;19.33;;;12.90;;
34541;SDS011;20784;51.332;12.410;2023-12-07T14:47:24;21.23;;;12.13;;
34541;SDS011;20784;51.332;12.410;2023-12-07T14:53:02;22.70;;;12.80;;
34541;SDS011;20784;51.332;12.410;2023-12-07T14:55:36;21.30;;;12.93;;
34541;SDS011;20784;51.332;12.410;2023-12-07T14:58:13;22.23;;;14.43;;
34541;SDS011;20784;51.332;12.410;2023-12-07T15:00:46;23.27;;;14.50;;
34541;SDS011;20784;51.332;12.410;2023-12-07T15:11:47;20.40;;;11.57;;
34541;SDS011;20784;51.332;12.410;2023-12-07T15:18:47;21.88;;;12.70;;
34541;SDS011;20784;51.332;12.410;2023-12-07T15:25:45;17.77;;;11.95;;
34541;SDS011;20784;51.332;12.410;2023-12-07T15:38:25;19.60;;;11.93;;
34541;SDS011;20784;51.332;12.410;2023-12-07T15:53:50;21.58;;;11.98;;
34541;SDS011;20784;51.332;12.410;2023-12-07T15:57:09;20.13;;;12.23;;
34541;SDS011;20784;51.332;12.410;2023-12-07T15:59:57;18.98;;;12.13;;
34541;SDS011;20784;51.332;12.410;2023-12-07T16:06:00;20.05;;;11.80;;
34541;SDS011;20784;51.332;12.410;2023-12-07T16:09:18;22.15;;;13.20;;